sensor_id;sensor_type;location;lat;lon;timestamp;temperature;humidity
975;DHT22;6115;49.296;10.602;2023-06-22T00:02:33;19.40;72.40
975;DHT22;6115;49.296;10.602;2023-06-22T00:07:33;19.40;72.60
975;DHT22;6115;49.296;10.602;2023-06-22T00:12:34;19.30;73.20
975;DHT22;6115;49.296;10.602;2023-06-22T00:17:35;19.40;73.20
975;DHT22;6115;49.296;10.602;2023-06-22T00:22:35;19.30;73.50
975;DHT22;6115;49.296;10.602;2023-06-22T00:27:39;19.30;73.50
975;DHT22;6115;49.296;10.602;2023-06-22T00:32:39;19.20;73.80
975;DHT22;6115;49.296;10.602;2023-06-22T00:37:40;19.20;73.80
975;DHT22;6115;49.296;10.602;2023-06-22T00:42:43;19.10;74.00
975;DHT22;6115;49.296;10.602;2023-06-22T00:47:44;19.10;73.70
975;DHT22;6115;49.296;10.602;2023-06-22T00:52:45;19.00;73.70
975;DHT22;6115;49.296;10.602;2023-06-22T00:57:46;19.10;73.70
975;DHT22;6115;49.296;10.602;2023-06-22T01:02:48;19.10;73.90
975;DHT22;6115;49.296;10.602;2023-06-22T01:13:06;18.90;73.80
975;DHT22;6115;49.296;10.602;2023-06-22T01:18:09;18.80;73.60
975;DHT22;6115;49.296;10.602;2023-06-22T01:28:50;18.60;73.20
975;DHT22;6115;49.296;10.602;2023-06-22T01:33:54;18.60;73.20
975;DHT22;6115;49.296;10.602;2023-06-22T01:38:57;18.60;73.00
975;DHT22;6115;49.296;10.602;2023-06-22T01:43:59;18.60;73.30
975;DHT22;6115;49.296;10.602;2023-06-22T01:49:04;18.60;73.50
975;DHT22;6115;49.296;10.602;2023-06-22T01:54:06;18.50;74.00
975;DHT22;6115;49.296;10.602;2023-06-22T01:59:26;18.50;74.00
975;DHT22;6115;49.296;10.602;2023-06-22T02:04:36;18.50;74.20
975;DHT22;6115;49.296;10.602;2023-06-22T02:09:38;18.40;73.90
975;DHT22;6115;49.296;10.602;2023-06-22T02:14:42;18.40;74.30
975;DHT22;6115;49.296;10.602;2023-06-22T02:19:43;18.40;74.90
975;DHT22;6115;49.296;10.602;2023-06-22T02:24:44;18.40;74.80
975;DHT22;6115;49.296;10.602;2023-06-22T02:29:44;18.20;75.50
975;DHT22;6115;49.296;10.602;2023-06-22T02:34:45;18.20;76.60
975;DHT22;6115;49.296;10.602;2023-06-22T02:39:47;18.20;77.80
975;DHT22;6115;49.296;10.602;2023-06-22T02:44:48;18.10;78.70
975;DHT22;6115;49.296;10.602;2023-06-22T02:49:49;18.00;79.30
975;DHT22;6115;49.296;10.602;2023-06-22T02:54:49;18.00;78.90
975;DHT22;6115;49.296;10.602;2023-06-22T02:59:50;18.00;78.60
975;DHT22;6115;49.296;10.602;2023-06-22T03:04:51;18.10;78.30
975;DHT22;6115;49.296;10.602;2023-06-22T03:09:53;18.20;77.30
975;DHT22;6115;49.296;10.602;2023-06-22T03:14:54;18.20;77.30
975;DHT22;6115;49.296;10.602;2023-06-22T03:19:54;18.20;77.30
975;DHT22;6115;49.296;10.602;2023-06-22T03:24:55;18.20;77.30
975;DHT22;6115;49.296;10.602;2023-06-22T03:29:57;18.20;77.30
975;DHT22;6115;49.296;10.602;2023-06-22T03:34:58;18.30;77.40
975;DHT22;6115;49.296;10.602;2023-06-22T03:39:59;18.20;77.30
975;DHT22;6115;49.296;10.602;2023-06-22T03:44:59;18.20;77.30
975;DHT22;6115;49.296;10.602;2023-06-22T03:50:01;18.10;78.10
975;DHT22;6115;49.296;10.602;2023-06-22T03:55:04;18.30;78.30
975;DHT22;6115;49.296;10.602;2023-06-22T04:00:05;18.30;78.40
975;DHT22;6115;49.296;10.602;2023-06-22T04:05:06;18.30;80.00
975;DHT22;6115;49.296;10.602;2023-06-22T04:10:07;18.40;80.90
975;DHT22;6115;49.296;10.602;2023-06-22T04:15:08;18.50;80.90
975;DHT22;6115;49.296;10.602;2023-06-22T04:20:09;18.50;80.60
975;DHT22;6115;49.296;10.602;2023-06-22T04:25:09;18.50;80.70
975;DHT22;6115;49.296;10.602;2023-06-22T04:30:10;18.60;80.60
975;DHT22;6115;49.296;10.602;2023-06-22T04:35:11;18.60;80.50
975;DHT22;6115;49.296;10.602;2023-06-22T04:40:12;18.70;81.30
975;DHT22;6115;49.296;10.602;2023-06-22T04:45:14;18.80;81.50
975;DHT22;6115;49.296;10.602;2023-06-22T04:50:15;18.80;81.70
975;DHT22;6115;49.296;10.602;2023-06-22T04:55:16;18.90;82.00
975;DHT22;6115;49.296;10.602;2023-06-22T05:00:20;19.00;82.00
975;DHT22;6115;49.296;10.602;2023-06-22T05:05:23;19.10;81.80
975;DHT22;6115;49.296;10.602;2023-06-22T05:10:24;19.30;81.30
975;DHT22;6115;49.296;10.602;2023-06-22T05:15:25;19.50;80.80
975;DHT22;6115;49.296;10.602;2023-06-22T05:20:28;19.60;80.00
975;DHT22;6115;49.296;10.602;2023-06-22T05:25:28;19.80;79.10
975;DHT22;6115;49.296;10.602;2023-06-22T05:30:30;20.10;79.20
975;DHT22;6115;49.296;10.602;2023-06-22T05:35:31;20.20;77.90
975;DHT22;6115;49.296;10.602;2023-06-22T05:40:32;20.40;77.10
975;DHT22;6115;49.296;10.602;2023-06-22T05:45:32;20.60;76.70
975;DHT22;6115;49.296;10.602;2023-06-22T05:50:33;20.80;76.30
975;DHT22;6115;49.296;10.602;2023-06-22T05:55:33;20.90;75.10
975;DHT22;6115;49.296;10.602;2023-06-22T06:00:34;21.20;74.30
975;DHT22;6115;49.296;10.602;2023-06-22T06:05:36;21.30;72.80
975;DHT22;6115;49.296;10.602;2023-06-22T06:10:38;21.50;71.90
975;DHT22;6115;49.296;10.602;2023-06-22T06:15:38;21.70;70.80
975;DHT22;6115;49.296;10.602;2023-06-22T06:20:40;21.80;70.90
975;DHT22;6115;49.296;10.602;2023-06-22T06:25:40;22.00;70.00
975;DHT22;6115;49.296;10.602;2023-06-22T06:30:41;22.10;69.20
975;DHT22;6115;49.296;10.602;2023-06-22T06:35:42;22.30;68.80
975;DHT22;6115;49.296;10.602;2023-06-22T06:40:43;22.50;68.40
975;DHT22;6115;49.296;10.602;2023-06-22T06:45:45;22.70;67.30
975;DHT22;6115;49.296;10.602;2023-06-22T06:50:46;22.90;66.50
975;DHT22;6115;49.296;10.602;2023-06-22T06:55:46;23.10;65.80
975;DHT22;6115;49.296;10.602;2023-06-22T07:00:47;23.20;65.80
975;DHT22;6115;49.296;10.602;2023-06-22T07:05:47;23.30;65.50
975;DHT22;6115;49.296;10.602;2023-06-22T07:10:48;23.50;64.90
975;DHT22;6115;49.296;10.602;2023-06-22T07:15:49;23.70;62.60
975;DHT22;6115;49.296;10.602;2023-06-22T07:20:49;23.90;62.80
975;DHT22;6115;49.296;10.602;2023-06-22T07:25:50;24.10;61.40
975;DHT22;6115;49.296;10.602;2023-06-22T07:30:50;24.30;60.10
975;DHT22;6115;49.296;10.602;2023-06-22T07:35:51;24.50;59.60
975;DHT22;6115;49.296;10.602;2023-06-22T07:40:52;24.60;58.30
975;DHT22;6115;49.296;10.602;2023-06-22T07:45:53;24.90;58.10
975;DHT22;6115;49.296;10.602;2023-06-22T07:50:54;25.10;56.20
975;DHT22;6115;49.296;10.602;2023-06-22T07:55:55;25.30;55.10
975;DHT22;6115;49.296;10.602;2023-06-22T08:00:55;25.50;54.60
975;DHT22;6115;49.296;10.602;2023-06-22T08:05:56;25.70;53.70
975;DHT22;6115;49.296;10.602;2023-06-22T08:10:56;25.90;53.40
975;DHT22;6115;49.296;10.602;2023-06-22T08:15:57;26.10;52.70
975;DHT22;6115;49.296;10.602;2023-06-22T08:20:57;26.30;52.40
975;DHT22;6115;49.296;10.602;2023-06-22T08:25:58;26.40;51.60
975;DHT22;6115;49.296;10.602;2023-06-22T08:31:00;26.70;50.90
975;DHT22;6115;49.296;10.602;2023-06-22T08:36:01;26.90;49.90
975;DHT22;6115;49.296;10.602;2023-06-22T08:41:02;27.00;48.70
975;DHT22;6115;49.296;10.602;2023-06-22T08:46:03;27.30;48.80
975;DHT22;6115;49.296;10.602;2023-06-22T08:51:04;27.50;47.80
975;DHT22;6115;49.296;10.602;2023-06-22T08:56:05;27.70;47.70
975;DHT22;6115;49.296;10.602;2023-06-22T09:01:05;27.90;46.80
975;DHT22;6115;49.296;10.602;2023-06-22T09:06:07;28.00;47.60
975;DHT22;6115;49.296;10.602;2023-06-22T09:11:09;28.40;47.20
975;DHT22;6115;49.296;10.602;2023-06-22T09:16:10;28.60;47.30
975;DHT22;6115;49.296;10.602;2023-06-22T09:21:10;28.90;46.30
975;DHT22;6115;49.296;10.602;2023-06-22T09:26:11;29.10;45.70
975;DHT22;6115;49.296;10.602;2023-06-22T09:31:11;29.30;44.80
975;DHT22;6115;49.296;10.602;2023-06-22T09:36:12;29.60;44.70
975;DHT22;6115;49.296;10.602;2023-06-22T09:41:12;29.80;43.60
975;DHT22;6115;49.296;10.602;2023-06-22T09:46:14;30.10;43.50
975;DHT22;6115;49.296;10.602;2023-06-22T09:51:15;30.40;43.60
975;DHT22;6115;49.296;10.602;2023-06-22T09:56:16;30.70;41.40
975;DHT22;6115;49.296;10.602;2023-06-22T10:01:17;31.00;41.50
975;DHT22;6115;49.296;10.602;2023-06-22T10:06:18;31.20;40.60
975;DHT22;6115;49.296;10.602;2023-06-22T10:11:18;31.50;39.50
975;DHT22;6115;49.296;10.602;2023-06-22T10:16:20;31.80;39.70
975;DHT22;6115;49.296;10.602;2023-06-22T10:21:21;32.20;38.00
975;DHT22;6115;49.296;10.602;2023-06-22T10:26:21;32.30;37.30
975;DHT22;6115;49.296;10.602;2023-06-22T10:31:22;32.50;36.90
975;DHT22;6115;49.296;10.602;2023-06-22T10:36:23;32.80;36.80
975;DHT22;6115;49.296;10.602;2023-06-22T10:41:23;32.90;35.70
975;DHT22;6115;49.296;10.602;2023-06-22T10:46:25;33.00;35.20
975;DHT22;6115;49.296;10.602;2023-06-22T10:51:28;33.00;34.70
975;DHT22;6115;49.296;10.602;2023-06-22T10:56:29;33.20;34.60
975;DHT22;6115;49.296;10.602;2023-06-22T11:01:29;33.50;36.30
975;DHT22;6115;49.296;10.602;2023-06-22T11:06:31;33.70;33.20
975;DHT22;6115;49.296;10.602;2023-06-22T11:11:32;33.70;33.10
975;DHT22;6115;49.296;10.602;2023-06-22T11:16:33;33.80;33.50
975;DHT22;6115;49.296;10.602;2023-06-22T11:21:35;34.00;33.70
975;DHT22;6115;49.296;10.602;2023-06-22T11:26:35;34.10;32.20
975;DHT22;6115;49.296;10.602;2023-06-22T11:31:37;34.10;32.90
975;DHT22;6115;49.296;10.602;2023-06-22T11:36:38;34.20;32.00
975;DHT22;6115;49.296;10.602;2023-06-22T11:41:39;34.30;31.40
975;DHT22;6115;49.296;10.602;2023-06-22T11:46:39;34.60;31.60
975;DHT22;6115;49.296;10.602;2023-06-22T11:51:40;34.70;31.70
975;DHT22;6115;49.296;10.602;2023-06-22T11:56:40;34.90;30.60
975;DHT22;6115;49.296;10.602;2023-06-22T12:01:41;35.00;30.70
975;DHT22;6115;49.296;10.602;2023-06-22T12:06:41;35.00;30.00
975;DHT22;6115;49.296;10.602;2023-06-22T12:11:43;35.10;29.90
975;DHT22;6115;49.296;10.602;2023-06-22T12:16:44;35.20;29.80
975;DHT22;6115;49.296;10.602;2023-06-22T12:21:45;35.10;29.70
975;DHT22;6115;49.296;10.602;2023-06-22T12:26:46;35.10;30.10
975;DHT22;6115;49.296;10.602;2023-06-22T12:31:46;35.20;29.60
975;DHT22;6115;49.296;10.602;2023-06-22T12:36:47;35.40;29.20
975;DHT22;6115;49.296;10.602;2023-06-22T12:41:49;35.60;28.80
975;DHT22;6115;49.296;10.602;2023-06-22T12:46:49;35.60;29.10
975;DHT22;6115;49.296;10.602;2023-06-22T12:51:50;35.50;29.50
975;DHT22;6115;49.296;10.602;2023-06-22T12:56:51;35.60;28.80
975;DHT22;6115;49.296;10.602;2023-06-22T13:01:51;35.80;28.50
975;DHT22;6115;49.296;10.602;2023-06-22T13:06:52;35.90;28.70
975;DHT22;6115;49.296;10.602;2023-06-22T13:11:52;36.00;28.50
975;DHT22;6115;49.296;10.602;2023-06-22T13:16:53;35.80;27.90
975;DHT22;6115;49.296;10.602;2023-06-22T13:21:54;35.80;28.90
975;DHT22;6115;49.296;10.602;2023-06-22T13:26:54;35.60;28.70
975;DHT22;6115;49.296;10.602;2023-06-22T13:31:56;35.30;28.50
975;DHT22;6115;49.296;10.602;2023-06-22T13:36:57;35.20;28.70
975;DHT22;6115;49.296;10.602;2023-06-22T13:41:58;35.20;29.00
975;DHT22;6115;49.296;10.602;2023-06-22T13:46:59;35.30;29.00
975;DHT22;6115;49.296;10.602;2023-06-22T13:52:00;35.40;29.50
975;DHT22;6115;49.296;10.602;2023-06-22T13:57:00;35.50;29.30
975;DHT22;6115;49.296;10.602;2023-06-22T14:02:01;35.40;28.50
975;DHT22;6115;49.296;10.602;2023-06-22T14:07:01;35.40;29.20
975;DHT22;6115;49.296;10.602;2023-06-22T14:12:08;35.50;28.40
975;DHT22;6115;49.296;10.602;2023-06-22T14:17:08;35.70;28.80
975;DHT22;6115;49.296;10.602;2023-06-22T14:22:10;35.70;28.90
975;DHT22;6115;49.296;10.602;2023-06-22T14:27:10;35.70;28.30
975;DHT22;6115;49.296;10.602;2023-06-22T14:32:11;35.80;28.10
975;DHT22;6115;49.296;10.602;2023-06-22T14:37:12;35.90;27.40
975;DHT22;6115;49.296;10.602;2023-06-22T14:42:13;36.10;28.30
975;DHT22;6115;49.296;10.602;2023-06-22T14:47:13;36.50;27.20
975;DHT22;6115;49.296;10.602;2023-06-22T14:52:14;36.80;26.80
975;DHT22;6115;49.296;10.602;2023-06-22T14:57:15;36.90;27.00
975;DHT22;6115;49.296;10.602;2023-06-22T15:02:18;36.90;27.00
975;DHT22;6115;49.296;10.602;2023-06-22T15:07:19;37.10;27.10
975;DHT22;6115;49.296;10.602;2023-06-22T15:12:20;37.30;25.90
975;DHT22;6115;49.296;10.602;2023-06-22T15:17:20;37.50;25.60
975;DHT22;6115;49.296;10.602;2023-06-22T15:22:21;37.50;25.50
975;DHT22;6115;49.296;10.602;2023-06-22T15:27:21;37.40;25.50
975;DHT22;6115;49.296;10.602;2023-06-22T15:32:22;37.30;24.80
975;DHT22;6115;49.296;10.602;2023-06-22T15:37:23;37.40;24.90
975;DHT22;6115;49.296;10.602;2023-06-22T15:42:23;37.70;25.00
975;DHT22;6115;49.296;10.602;2023-06-22T15:47:24;37.80;25.00
975;DHT22;6115;49.296;10.602;2023-06-22T15:52:24;38.00;24.60
975;DHT22;6115;49.296;10.602;2023-06-22T15:57:26;38.30;23.70
975;DHT22;6115;49.296;10.602;2023-06-22T16:02:27;38.40;23.50
975;DHT22;6115;49.296;10.602;2023-06-22T16:07:28;38.00;23.30
975;DHT22;6115;49.296;10.602;2023-06-22T16:12:29;37.60;23.40
975;DHT22;6115;49.296;10.602;2023-06-22T16:17:29;37.10;24.70
975;DHT22;6115;49.296;10.602;2023-06-22T16:22:30;36.90;23.90
975;DHT22;6115;49.296;10.602;2023-06-22T16:27:31;36.70;24.50
975;DHT22;6115;49.296;10.602;2023-06-22T16:32:32;36.40;25.40
975;DHT22;6115;49.296;10.602;2023-06-22T16:37:33;36.10;25.00
975;DHT22;6115;49.296;10.602;2023-06-22T16:42:33;35.80;25.90
975;DHT22;6115;49.296;10.602;2023-06-22T16:47:34;35.60;26.50
975;DHT22;6115;49.296;10.602;2023-06-22T16:52:36;35.50;26.40
975;DHT22;6115;49.296;10.602;2023-06-22T16:57:37;35.60;26.50
975;DHT22;6115;49.296;10.602;2023-06-22T17:02:50;35.50;26.80
975;DHT22;6115;49.296;10.602;2023-06-22T17:07:53;35.10;26.50
975;DHT22;6115;49.296;10.602;2023-06-22T17:12:57;34.70;25.70
975;DHT22;6115;49.296;10.602;2023-06-22T17:17:58;34.30;25.90
975;DHT22;6115;49.296;10.602;2023-06-22T17:22:59;34.10;25.80
975;DHT22;6115;49.296;10.602;2023-06-22T17:28:00;33.90;26.30
975;DHT22;6115;49.296;10.602;2023-06-22T17:33:02;33.60;26.50
975;DHT22;6115;49.296;10.602;2023-06-22T17:38:03;33.40;26.80
975;DHT22;6115;49.296;10.602;2023-06-22T17:43:04;33.30;26.80
975;DHT22;6115;49.296;10.602;2023-06-22T17:48:07;33.10;27.50
975;DHT22;6115;49.296;10.602;2023-06-22T17:53:12;33.20;27.40
975;DHT22;6115;49.296;10.602;2023-06-22T17:58:13;32.90;26.80
975;DHT22;6115;49.296;10.602;2023-06-22T18:03:14;32.70;27.10
975;DHT22;6115;49.296;10.602;2023-06-22T18:08:18;32.40;27.70
975;DHT22;6115;49.296;10.602;2023-06-22T18:13:24;32.20;27.90
975;DHT22;6115;49.296;10.602;2023-06-22T18:18:26;32.20;28.70
975;DHT22;6115;49.296;10.602;2023-06-22T18:23:27;32.20;29.10
975;DHT22;6115;49.296;10.602;2023-06-22T18:28:35;32.00;29.10
975;DHT22;6115;49.296;10.602;2023-06-22T18:33:36;31.80;29.90
975;DHT22;6115;49.296;10.602;2023-06-22T18:38:41;31.60;30.40
975;DHT22;6115;49.296;10.602;2023-06-22T18:43:43;31.40;30.80
975;DHT22;6115;49.296;10.602;2023-06-22T18:48:43;31.30;31.00
975;DHT22;6115;49.296;10.602;2023-06-22T18:53:44;31.10;31.60
975;DHT22;6115;49.296;10.602;2023-06-22T18:58:55;30.90;31.60
975;DHT22;6115;49.296;10.602;2023-06-22T19:03:57;30.80;32.60
975;DHT22;6115;49.296;10.602;2023-06-22T19:09:15;30.60;32.90
975;DHT22;6115;49.296;10.602;2023-06-22T19:14:19;30.30;33.00
975;DHT22;6115;49.296;10.602;2023-06-22T19:19:21;30.10;32.60
975;DHT22;6115;49.296;10.602;2023-06-22T19:24:31;29.90;33.20
975;DHT22;6115;49.296;10.602;2023-06-22T19:29:34;29.40;32.30
975;DHT22;6115;49.296;10.602;2023-06-22T19:34:35;29.00;33.90
975;DHT22;6115;49.296;10.602;2023-06-22T19:39:37;28.50;34.00
975;DHT22;6115;49.296;10.602;2023-06-22T19:44:37;28.20;33.20
975;DHT22;6115;49.296;10.602;2023-06-22T19:49:38;28.20;33.30
975;DHT22;6115;49.296;10.602;2023-06-22T19:54:40;28.20;35.80
975;DHT22;6115;49.296;10.602;2023-06-22T19:59:41;28.00;36.60
975;DHT22;6115;49.296;10.602;2023-06-22T20:04:44;27.70;37.70
975;DHT22;6115;49.296;10.602;2023-06-22T20:09:45;27.50;37.40
975;DHT22;6115;49.296;10.602;2023-06-22T20:14:46;27.40;37.60
975;DHT22;6115;49.296;10.602;2023-06-22T20:19:53;27.40;36.90
975;DHT22;6115;49.296;10.602;2023-06-22T20:24:54;27.20;39.90
975;DHT22;6115;49.296;10.602;2023-06-22T20:29:54;26.90;42.80
975;DHT22;6115;49.296;10.602;2023-06-22T20:34:55;26.40;45.30
975;DHT22;6115;49.296;10.602;2023-06-22T20:39:56;25.90;46.30
975;DHT22;6115;49.296;10.602;2023-06-22T20:44:56;25.50;47.40
975;DHT22;6115;49.296;10.602;2023-06-22T20:49:58;25.40;47.90
975;DHT22;6115;49.296;10.602;2023-06-22T20:55:00;25.30;47.80
975;DHT22;6115;49.296;10.602;2023-06-22T21:00:02;25.20;48.30
975;DHT22;6115;49.296;10.602;2023-06-22T21:05:07;25.00;50.50
975;DHT22;6115;49.296;10.602;2023-06-22T21:10:08;25.00;46.70
975;DHT22;6115;49.296;10.602;2023-06-22T21:15:09;25.00;45.00
975;DHT22;6115;49.296;10.602;2023-06-22T21:20:10;25.10;44.40
975;DHT22;6115;49.296;10.602;2023-06-22T21:25:13;25.20;42.80
975;DHT22;6115;49.296;10.602;2023-06-22T21:30:13;25.30;42.70
975;DHT22;6115;49.296;10.602;2023-06-22T21:35:15;25.30;42.30
975;DHT22;6115;49.296;10.602;2023-06-22T21:40:16;25.30;41.90
975;DHT22;6115;49.296;10.602;2023-06-22T21:45:16;25.40;42.20
975;DHT22;6115;49.296;10.602;2023-06-22T21:50:17;25.30;42.10
975;DHT22;6115;49.296;10.602;2023-06-22T21:55:18;25.30;43.10
975;DHT22;6115;49.296;10.602;2023-06-22T22:00:18;25.30;42.30
975;DHT22;6115;49.296;10.602;2023-06-22T22:05:19;25.20;42.20
975;DHT22;6115;49.296;10.602;2023-06-22T22:10:20;25.20;42.20
975;DHT22;6115;49.296;10.602;2023-06-22T22:15:20;25.10;42.30
975;DHT22;6115;49.296;10.602;2023-06-22T22:20:23;25.00;42.40
975;DHT22;6115;49.296;10.602;2023-06-22T22:25:24;24.90;43.10
975;DHT22;6115;49.296;10.602;2023-06-22T22:30:27;24.80;44.80
975;DHT22;6115;49.296;10.602;2023-06-22T22:35:27;24.60;47.90
975;DHT22;6115;49.296;10.602;2023-06-22T22:40:28;24.30;50.20
975;DHT22;6115;49.296;10.602;2023-06-22T22:45:29;24.20;50.90
975;DHT22;6115;49.296;10.602;2023-06-22T22:50:29;24.10;51.50
975;DHT22;6115;49.296;10.602;2023-06-22T22:55:30;23.90;52.10
975;DHT22;6115;49.296;10.602;2023-06-22T23:00:33;23.80;52.50
975;DHT22;6115;49.296;10.602;2023-06-22T23:05:34;23.50;53.00
975;DHT22;6115;49.296;10.602;2023-06-22T23:10:35;23.40;52.90
975;DHT22;6115;49.296;10.602;2023-06-22T23:15:35;23.20;53.70
975;DHT22;6115;49.296;10.602;2023-06-22T23:20:36;23.10;54.20
975;DHT22;6115;49.296;10.602;2023-06-22T23:25:37;22.90;54.50
975;DHT22;6115;49.296;10.602;2023-06-22T23:30:38;22.70;54.90
975;DHT22;6115;49.296;10.602;2023-06-22T23:35:39;22.60;55.80
975;DHT22;6115;49.296;10.602;2023-06-22T23:40:42;22.40;56.60
975;DHT22;6115;49.296;10.602;2023-06-22T23:45:42;22.20;57.30
975;DHT22;6115;49.296;10.602;2023-06-22T23:50:43;21.80;58.50
975;DHT22;6115;49.296;10.602;2023-06-22T23:55:43;21.50;60.10
